sensor_id;sensor_type;location;lat;lon;timestamp;P1;durP1;ratioP1;P2;durP2;ratioP2
77226;SDS011;66234;47.642;19.144;2024-03-08T00:01:29;19.37;;;11.10;;
77226;SDS011;66234;47.642;19.144;2024-03-08T00:04:31;21.87;;;11.90;;
77226;SDS011;66234;47.642;19.144;2024-03-08T00:07:34;24.20;;;12.75;;
77226;SDS011;66234;47.642;19.144;2024-03-08T00:10:39;19.95;;;12.02;;
77226;SDS011;66234;47.642;19.144;2024-03-08T00:13:42;22.83;;;12.05;;
77226;SDS011;66234;47.642;19.144;2024-03-08T00:16:44;21.07;;;12.77;;
77226;SDS011;66234;47.642;19.144;2024-03-08T00:19:47;19.90;;;11.37;;
77226;SDS011;66234;47.642;19.144;2024-03-08T00:22:50;24.38;;;13.00;;
77226;SDS011;66234;47.642;19.144;2024-03-08T00:25:53;20.70;;;11.48;;
77226;SDS011;66234;47.642;19.144;2024-03-08T00:28:57;20.55;;;11.57;;
77226;SDS011;66234;47.642;19.144;2024-03-08T00:32:00;20.67;;;11.27;;
77226;SDS011;66234;47.642;19.144;2024-03-08T00:35:03;20.10;;;11.37;;
77226;SDS011;66234;47.642;19.144;2024-03-08T00:38:06;20.30;;;11.00;;
77226;SDS011;66234;47.642;19.144;2024-03-08T00:41:08;21.65;;;11.77;;
77226;SDS011;66234;47.642;19.144;2024-03-08T00:44:11;21.08;;;11.88;;
77226;SDS011;66234;47.642;19.144;2024-03-08T00:47:14;22.30;;;12.10;;
77226;SDS011;66234;47.642;19.144;2024-03-08T00:50:17;23.23;;;12.37;;
77226;SDS011;66234;47.642;19.144;2024-03-08T00:53:20;20.05;;;12.02;;
77226;SDS011;66234;47.642;19.144;2024-03-08T00:56:23;20.90;;;11.68;;
77226;SDS011;66234;47.642;19.144;2024-03-08T00:59:27;23.65;;;12.38;;
77226;SDS011;66234;47.642;19.144;2024-03-08T01:02:30;22.10;;;13.10;;
77226;SDS011;66234;47.642;19.144;2024-03-08T01:05:32;24.60;;;12.93;;
77226;SDS011;66234;47.642;19.144;2024-03-08T01:08:36;21.20;;;11.93;;
77226;SDS011;66234;47.642;19.144;2024-03-08T01:11:40;22.48;;;12.02;;
77226;SDS011;66234;47.642;19.144;2024-03-08T01:14:44;22.58;;;11.73;;
77226;SDS011;66234;47.642;19.144;2024-03-08T01:17:46;22.10;;;12.03;;
77226;SDS011;66234;47.642;19.144;2024-03-08T01:20:49;24.87;;;13.27;;
77226;SDS011;66234;47.642;19.144;2024-03-08T01:23:52;24.25;;;12.88;;
77226;SDS011;66234;47.642;19.144;2024-03-08T01:26:57;24.17;;;11.70;;
77226;SDS011;66234;47.642;19.144;2024-03-08T01:29:59;23.52;;;12.07;;
77226;SDS011;66234;47.642;19.144;2024-03-08T01:33:03;22.43;;;11.87;;
77226;SDS011;66234;47.642;19.144;2024-03-08T01:36:06;23.45;;;12.85;;
77226;SDS011;66234;47.642;19.144;2024-03-08T01:39:09;19.75;;;11.75;;
77226;SDS011;66234;47.642;19.144;2024-03-08T01:42:12;22.40;;;11.50;;
77226;SDS011;66234;47.642;19.144;2024-03-08T01:45:17;22.73;;;11.55;;
77226;SDS011;66234;47.642;19.144;2024-03-08T01:48:20;26.87;;;12.60;;
77226;SDS011;66234;47.642;19.144;2024-03-08T01:51:26;23.50;;;13.10;;
77226;SDS011;66234;47.642;19.144;2024-03-08T01:54:30;21.67;;;11.63;;
77226;SDS011;66234;47.642;19.144;2024-03-08T01:57:33;22.55;;;12.30;;
77226;SDS011;66234;47.642;19.144;2024-03-08T02:00:36;20.58;;;12.15;;
77226;SDS011;66234;47.642;19.144;2024-03-08T02:03:42;23.90;;;12.40;;
77226;SDS011;66234;47.642;19.144;2024-03-08T02:06:47;23.77;;;12.63;;
77226;SDS011;66234;47.642;19.144;2024-03-08T02:09:51;26.42;;;13.48;;
77226;SDS011;66234;47.642;19.144;2024-03-08T02:12:55;24.92;;;12.68;;
77226;SDS011;66234;47.642;19.144;2024-03-08T02:15:58;22.95;;;12.82;;
77226;SDS011;66234;47.642;19.144;2024-03-08T02:19:01;24.43;;;13.13;;
77226;SDS011;66234;47.642;19.144;2024-03-08T02:22:04;28.30;;;13.77;;
77226;SDS011;66234;47.642;19.144;2024-03-08T02:25:08;25.92;;;13.90;;
77226;SDS011;66234;47.642;19.144;2024-03-08T02:28:11;25.77;;;12.75;;
77226;SDS011;66234;47.642;19.144;2024-03-08T02:31:15;28.45;;;13.57;;
77226;SDS011;66234;47.642;19.144;2024-03-08T02:34:17;26.83;;;13.73;;
77226;SDS011;66234;47.642;19.144;2024-03-08T02:37:20;26.85;;;12.88;;
77226;SDS011;66234;47.642;19.144;2024-03-08T02:40:22;29.17;;;14.80;;
77226;SDS011;66234;47.642;19.144;2024-03-08T02:43:25;25.02;;;13.07;;
77226;SDS011;66234;47.642;19.144;2024-03-08T02:46:27;23.08;;;12.45;;
77226;SDS011;66234;47.642;19.144;2024-03-08T02:49:30;21.23;;;11.30;;
77226;SDS011;66234;47.642;19.144;2024-03-08T02:52:36;27.95;;;13.68;;
77226;SDS011;66234;47.642;19.144;2024-03-08T02:55:39;23.75;;;13.75;;
77226;SDS011;66234;47.642;19.144;2024-03-08T02:58:43;26.02;;;13.30;;
77226;SDS011;66234;47.642;19.144;2024-03-08T03:01:55;26.60;;;13.80;;
77226;SDS011;66234;47.642;19.144;2024-03-08T03:04:57;25.23;;;12.80;;
77226;SDS011;66234;47.642;19.144;2024-03-08T03:08:00;25.70;;;13.48;;
77226;SDS011;66234;47.642;19.144;2024-03-08T03:11:03;25.45;;;13.52;;
77226;SDS011;66234;47.642;19.144;2024-03-08T03:14:06;26.58;;;13.50;;
77226;SDS011;66234;47.642;19.144;2024-03-08T03:17:11;33.67;;;14.23;;
77226;SDS011;66234;47.642;19.144;2024-03-08T03:20:14;27.90;;;13.77;;
77226;SDS011;66234;47.642;19.144;2024-03-08T03:23:17;31.30;;;14.45;;
77226;SDS011;66234;47.642;19.144;2024-03-08T03:26:23;32.63;;;15.02;;
77226;SDS011;66234;47.642;19.144;2024-03-08T03:29:25;29.40;;;14.63;;
77226;SDS011;66234;47.642;19.144;2024-03-08T03:32:28;28.33;;;15.23;;
77226;SDS011;66234;47.642;19.144;2024-03-08T03:35:31;29.10;;;15.30;;
77226;SDS011;66234;47.642;19.144;2024-03-08T03:38:33;31.05;;;15.45;;
77226;SDS011;66234;47.642;19.144;2024-03-08T03:41:37;35.20;;;16.02;;
77226;SDS011;66234;47.642;19.144;2024-03-08T03:44:40;32.10;;;15.48;;
77226;SDS011;66234;47.642;19.144;2024-03-08T03:47:43;31.23;;;15.38;;
77226;SDS011;66234;47.642;19.144;2024-03-08T03:50:46;29.03;;;15.03;;
77226;SDS011;66234;47.642;19.144;2024-03-08T03:53:48;34.05;;;15.15;;
77226;SDS011;66234;47.642;19.144;2024-03-08T03:56:51;33.00;;;15.70;;
77226;SDS011;66234;47.642;19.144;2024-03-08T03:59:55;34.20;;;16.75;;
77226;SDS011;66234;47.642;19.144;2024-03-08T04:02:59;38.70;;;17.30;;
77226;SDS011;66234;47.642;19.144;2024-03-08T04:06:04;35.53;;;16.03;;
77226;SDS011;66234;47.642;19.144;2024-03-08T04:09:07;39.03;;;17.77;;
77226;SDS011;66234;47.642;19.144;2024-03-08T04:12:10;35.20;;;16.70;;
77226;SDS011;66234;47.642;19.144;2024-03-08T04:15:13;36.28;;;17.20;;
77226;SDS011;66234;47.642;19.144;2024-03-08T04:18:17;38.72;;;17.33;;
77226;SDS011;66234;47.642;19.144;2024-03-08T04:21:23;43.47;;;17.93;;
77226;SDS011;66234;47.642;19.144;2024-03-08T04:24:25;38.25;;;18.25;;
77226;SDS011;66234;47.642;19.144;2024-03-08T04:27:28;35.72;;;16.75;;
77226;SDS011;66234;47.642;19.144;2024-03-08T04:30:30;41.53;;;17.67;;
77226;SDS011;66234;47.642;19.144;2024-03-08T04:33:33;45.85;;;18.35;;
77226;SDS011;66234;47.642;19.144;2024-03-08T04:36:38;38.77;;;17.37;;
77226;SDS011;66234;47.642;19.144;2024-03-08T04:39:41;44.35;;;18.90;;
77226;SDS011;66234;47.642;19.144;2024-03-08T04:42:43;38.60;;;18.20;;
77226;SDS011;66234;47.642;19.144;2024-03-08T04:45:46;40.00;;;18.20;;
77226;SDS011;66234;47.642;19.144;2024-03-08T04:48:49;43.08;;;18.45;;
77226;SDS011;66234;47.642;19.144;2024-03-08T04:51:51;40.47;;;17.93;;
77226;SDS011;66234;47.642;19.144;2024-03-08T04:54:54;37.92;;;17.73;;
77226;SDS011;66234;47.642;19.144;2024-03-08T04:57:56;41.90;;;18.20;;
77226;SDS011;66234;47.642;19.144;2024-03-08T05:00:59;44.05;;;18.40;;
77226;SDS011;66234;47.642;19.144;2024-03-08T05:04:02;43.22;;;18.77;;
77226;SDS011;66234;47.642;19.144;2024-03-08T05:07:09;41.67;;;19.73;;
77226;SDS011;66234;47.642;19.144;2024-03-08T05:10:12;44.00;;;19.67;;
77226;SDS011;66234;47.642;19.144;2024-03-08T05:13:19;46.80;;;19.13;;
77226;SDS011;66234;47.642;19.144;2024-03-08T05:16:21;45.35;;;19.58;;
77226;SDS011;66234;47.642;19.144;2024-03-08T05:19:24;43.80;;;22.98;;
77226;SDS011;66234;47.642;19.144;2024-03-08T05:22:27;46.63;;;19.83;;
77226;SDS011;66234;47.642;19.144;2024-03-08T05:25:30;44.80;;;19.65;;
77226;SDS011;66234;47.642;19.144;2024-03-08T05:28:33;43.70;;;19.77;;
77226;SDS011;66234;47.642;19.144;2024-03-08T05:31:51;43.13;;;18.60;;
77226;SDS011;66234;47.642;19.144;2024-03-08T05:34:55;45.08;;;19.52;;
77226;SDS011;66234;47.642;19.144;2024-03-08T05:37:58;42.03;;;18.73;;
77226;SDS011;66234;47.642;19.144;2024-03-08T05:41:00;39.72;;;18.60;;
77226;SDS011;66234;47.642;19.144;2024-03-08T05:44:03;40.03;;;18.80;;
77226;SDS011;66234;47.642;19.144;2024-03-08T05:47:06;47.88;;;19.02;;
77226;SDS011;66234;47.642;19.144;2024-03-08T05:50:09;36.72;;;18.23;;
77226;SDS011;66234;47.642;19.144;2024-03-08T05:53:13;39.63;;;18.10;;
77226;SDS011;66234;47.642;19.144;2024-03-08T05:56:17;46.60;;;17.95;;
77226;SDS011;66234;47.642;19.144;2024-03-08T05:59:19;37.47;;;17.92;;
77226;SDS011;66234;47.642;19.144;2024-03-08T06:02:22;39.97;;;18.65;;
77226;SDS011;66234;47.642;19.144;2024-03-08T06:05:24;45.15;;;19.85;;
77226;SDS011;66234;47.642;19.144;2024-03-08T06:08:27;40.70;;;19.07;;
77226;SDS011;66234;47.642;19.144;2024-03-08T06:11:32;43.78;;;17.95;;
77226;SDS011;66234;47.642;19.144;2024-03-08T06:14:34;45.60;;;18.35;;
77226;SDS011;66234;47.642;19.144;2024-03-08T06:17:37;39.50;;;17.27;;
77226;SDS011;66234;47.642;19.144;2024-03-08T06:20:40;41.90;;;18.73;;
77226;SDS011;66234;47.642;19.144;2024-03-08T06:23:45;41.77;;;19.00;;
77226;SDS011;66234;47.642;19.144;2024-03-08T06:26:48;45.67;;;19.58;;
77226;SDS011;66234;47.642;19.144;2024-03-08T06:29:51;43.88;;;20.02;;
77226;SDS011;66234;47.642;19.144;2024-03-08T06:32:54;48.38;;;19.90;;
77226;SDS011;66234;47.642;19.144;2024-03-08T06:35:58;44.27;;;19.77;;
77226;SDS011;66234;47.642;19.144;2024-03-08T06:39:01;43.30;;;20.53;;
77226;SDS011;66234;47.642;19.144;2024-03-08T06:42:08;41.30;;;19.33;;
77226;SDS011;66234;47.642;19.144;2024-03-08T06:45:12;39.45;;;19.23;;
77226;SDS011;66234;47.642;19.144;2024-03-08T06:48:17;43.63;;;19.83;;
77226;SDS011;66234;47.642;19.144;2024-03-08T06:51:20;47.13;;;20.27;;
77226;SDS011;66234;47.642;19.144;2024-03-08T06:54:23;44.50;;;19.00;;
77226;SDS011;66234;47.642;19.144;2024-03-08T06:57:27;39.92;;;18.58;;
77226;SDS011;66234;47.642;19.144;2024-03-08T07:00:32;41.72;;;18.83;;
77226;SDS011;66234;47.642;19.144;2024-03-08T07:03:36;43.10;;;18.52;;
77226;SDS011;66234;47.642;19.144;2024-03-08T07:06:38;45.73;;;19.40;;
77226;SDS011;66234;47.642;19.144;2024-03-08T07:09:44;39.17;;;18.47;;
77226;SDS011;66234;47.642;19.144;2024-03-08T07:12:47;41.25;;;18.10;;
77226;SDS011;66234;47.642;19.144;2024-03-08T07:15:50;41.28;;;19.38;;
77226;SDS011;66234;47.642;19.144;2024-03-08T07:18:54;41.33;;;20.35;;
77226;SDS011;66234;47.642;19.144;2024-03-08T07:21:57;47.03;;;20.83;;
77226;SDS011;66234;47.642;19.144;2024-03-08T07:25:00;40.70;;;19.20;;
77226;SDS011;66234;47.642;19.144;2024-03-08T07:28:20;45.55;;;18.80;;
77226;SDS011;66234;47.642;19.144;2024-03-08T07:31:23;42.97;;;20.27;;
77226;SDS011;66234;47.642;19.144;2024-03-08T07:34:28;38.70;;;18.52;;
77226;SDS011;66234;47.642;19.144;2024-03-08T07:37:37;45.13;;;20.93;;
77226;SDS011;66234;47.642;19.144;2024-03-08T07:40:42;40.03;;;18.87;;
77226;SDS011;66234;47.642;19.144;2024-03-08T07:43:47;41.70;;;20.05;;
77226;SDS011;66234;47.642;19.144;2024-03-08T07:46:51;35.63;;;17.85;;
77226;SDS011;66234;47.642;19.144;2024-03-08T07:49:58;39.40;;;18.20;;
77226;SDS011;66234;47.642;19.144;2024-03-08T07:53:06;44.10;;;20.80;;
77226;SDS011;66234;47.642;19.144;2024-03-08T07:56:10;40.30;;;18.87;;
77226;SDS011;66234;47.642;19.144;2024-03-08T07:59:16;40.42;;;18.35;;
77226;SDS011;66234;47.642;19.144;2024-03-08T08:02:18;39.28;;;18.38;;
77226;SDS011;66234;47.642;19.144;2024-03-08T08:05:21;48.97;;;22.98;;
77226;SDS011;66234;47.642;19.144;2024-03-08T08:08:25;37.73;;;19.67;;
77226;SDS011;66234;47.642;19.144;2024-03-08T08:11:29;46.40;;;20.43;;
77226;SDS011;66234;47.642;19.144;2024-03-08T08:14:32;43.63;;;20.40;;
77226;SDS011;66234;47.642;19.144;2024-03-08T08:17:34;42.95;;;20.15;;
77226;SDS011;66234;47.642;19.144;2024-03-08T08:20:37;53.08;;;24.58;;
77226;SDS011;66234;47.642;19.144;2024-03-08T08:23:40;46.23;;;20.67;;
77226;SDS011;66234;47.642;19.144;2024-03-08T08:26:43;43.33;;;19.37;;
77226;SDS011;66234;47.642;19.144;2024-03-08T08:29:46;43.20;;;18.85;;
77226;SDS011;66234;47.642;19.144;2024-03-08T08:32:50;45.83;;;20.55;;
77226;SDS011;66234;47.642;19.144;2024-03-08T08:35:53;41.08;;;19.10;;
77226;SDS011;66234;47.642;19.144;2024-03-08T08:38:57;50.57;;;22.90;;
77226;SDS011;66234;47.642;19.144;2024-03-08T08:42:01;49.07;;;22.30;;
77226;SDS011;66234;47.642;19.144;2024-03-08T08:45:06;47.08;;;21.15;;
77226;SDS011;66234;47.642;19.144;2024-03-08T08:48:18;45.67;;;19.90;;
77226;SDS011;66234;47.642;19.144;2024-03-08T08:51:21;44.47;;;20.15;;
77226;SDS011;66234;47.642;19.144;2024-03-08T08:54:25;41.70;;;19.57;;
77226;SDS011;66234;47.642;19.144;2024-03-08T08:57:29;51.07;;;23.90;;
77226;SDS011;66234;47.642;19.144;2024-03-08T09:00:35;48.83;;;20.10;;
77226;SDS011;66234;47.642;19.144;2024-03-08T09:03:37;48.28;;;23.08;;
77226;SDS011;66234;47.642;19.144;2024-03-08T09:06:42;45.72;;;20.23;;
77226;SDS011;66234;47.642;19.144;2024-03-08T09:09:46;47.30;;;20.87;;
77226;SDS011;66234;47.642;19.144;2024-03-08T09:12:48;43.13;;;19.77;;
77226;SDS011;66234;47.642;19.144;2024-03-08T09:15:51;46.95;;;19.42;;
77226;SDS011;66234;47.642;19.144;2024-03-08T09:18:55;46.85;;;20.85;;
77226;SDS011;66234;47.642;19.144;2024-03-08T09:21:57;44.78;;;20.52;;
77226;SDS011;66234;47.642;19.144;2024-03-08T09:25:00;44.97;;;21.20;;
77226;SDS011;66234;47.642;19.144;2024-03-08T09:28:03;47.47;;;20.53;;
77226;SDS011;66234;47.642;19.144;2024-03-08T09:31:08;49.47;;;20.92;;
77226;SDS011;66234;47.642;19.144;2024-03-08T09:34:11;47.38;;;21.77;;
77226;SDS011;66234;47.642;19.144;2024-03-08T09:37:23;38.85;;;18.15;;
77226;SDS011;66234;47.642;19.144;2024-03-08T09:40:28;47.70;;;19.40;;
77226;SDS011;66234;47.642;19.144;2024-03-08T09:43:36;45.87;;;21.37;;
77226;SDS011;66234;47.642;19.144;2024-03-08T09:46:40;48.53;;;21.30;;
77226;SDS011;66234;47.642;19.144;2024-03-08T09:49:45;45.15;;;21.38;;
77226;SDS011;66234;47.642;19.144;2024-03-08T09:52:48;43.33;;;20.23;;
77226;SDS011;66234;47.642;19.144;2024-03-08T09:55:53;45.50;;;19.97;;
77226;SDS011;66234;47.642;19.144;2024-03-08T09:58:57;41.00;;;19.40;;
77226;SDS011;66234;47.642;19.144;2024-03-08T10:02:18;45.30;;;19.52;;
77226;SDS011;66234;47.642;19.144;2024-03-08T10:05:21;48.90;;;22.27;;
77226;SDS011;66234;47.642;19.144;2024-03-08T10:08:26;44.53;;;21.98;;
77226;SDS011;66234;47.642;19.144;2024-03-08T10:11:29;50.37;;;22.07;;
77226;SDS011;66234;47.642;19.144;2024-03-08T10:14:38;39.77;;;18.77;;
77226;SDS011;66234;47.642;19.144;2024-03-08T10:17:42;45.50;;;20.77;;
77226;SDS011;66234;47.642;19.144;2024-03-08T10:20:45;42.75;;;18.02;;
77226;SDS011;66234;47.642;19.144;2024-03-08T10:23:48;45.15;;;21.20;;
77226;SDS011;66234;47.642;19.144;2024-03-08T10:27:01;46.77;;;21.87;;
77226;SDS011;66234;47.642;19.144;2024-03-08T10:30:13;49.83;;;21.83;;
77226;SDS011;66234;47.642;19.144;2024-03-08T10:33:18;44.70;;;20.40;;
77226;SDS011;66234;47.642;19.144;2024-03-08T10:36:20;45.67;;;20.55;;
77226;SDS011;66234;47.642;19.144;2024-03-08T10:39:24;45.65;;;20.33;;
77226;SDS011;66234;47.642;19.144;2024-03-08T10:42:28;47.30;;;19.73;;
77226;SDS011;66234;47.642;19.144;2024-03-08T10:45:34;45.50;;;19.67;;
77226;SDS011;66234;47.642;19.144;2024-03-08T10:48:44;46.70;;;21.23;;
77226;SDS011;66234;47.642;19.144;2024-03-08T10:51:48;39.53;;;19.60;;
77226;SDS011;66234;47.642;19.144;2024-03-08T10:54:54;53.78;;;22.27;;
77226;SDS011;66234;47.642;19.144;2024-03-08T10:58:01;49.40;;;20.37;;
77226;SDS011;66234;47.642;19.144;2024-03-08T11:01:04;41.57;;;19.87;;
77226;SDS011;66234;47.642;19.144;2024-03-08T11:04:08;41.88;;;19.65;;
77226;SDS011;66234;47.642;19.144;2024-03-08T11:07:12;46.10;;;20.23;;
77226;SDS011;66234;47.642;19.144;2024-03-08T11:10:19;49.70;;;21.48;;
77226;SDS011;66234;47.642;19.144;2024-03-08T11:16:48;44.00;;;19.90;;
77226;SDS011;66234;47.642;19.144;2024-03-08T11:19:51;45.40;;;20.08;;
77226;SDS011;66234;47.642;19.144;2024-03-08T11:23:00;48.28;;;21.08;;
77226;SDS011;66234;47.642;19.144;2024-03-08T11:26:18;39.90;;;19.67;;
77226;SDS011;66234;47.642;19.144;2024-03-08T11:29:36;36.77;;;16.97;;
77226;SDS011;66234;47.642;19.144;2024-03-08T11:32:45;37.73;;;18.50;;
77226;SDS011;66234;47.642;19.144;2024-03-08T11:35:51;43.00;;;18.70;;
77226;SDS011;66234;47.642;19.144;2024-03-08T11:38:53;36.33;;;16.80;;
77226;SDS011;66234;47.642;19.144;2024-03-08T11:41:58;32.78;;;16.90;;
77226;SDS011;66234;47.642;19.144;2024-03-08T11:45:07;35.67;;;16.70;;
77226;SDS011;66234;47.642;19.144;2024-03-08T11:48:11;32.60;;;15.03;;
77226;SDS011;66234;47.642;19.144;2024-03-08T11:51:15;33.03;;;16.42;;
77226;SDS011;66234;47.642;19.144;2024-03-08T11:54:21;37.55;;;18.38;;
77226;SDS011;66234;47.642;19.144;2024-03-08T11:57:25;34.40;;;17.17;;
77226;SDS011;66234;47.642;19.144;2024-03-08T12:00:29;29.37;;;14.90;;
77226;SDS011;66234;47.642;19.144;2024-03-08T12:03:38;28.87;;;14.60;;
77226;SDS011;66234;47.642;19.144;2024-03-08T12:06:46;29.52;;;14.75;;
77226;SDS011;66234;47.642;19.144;2024-03-08T12:13:20;35.95;;;16.75;;
77226;SDS011;66234;47.642;19.144;2024-03-08T12:16:23;37.20;;;17.53;;
77226;SDS011;66234;47.642;19.144;2024-03-08T12:19:27;41.87;;;18.90;;
77226;SDS011;66234;47.642;19.144;2024-03-08T12:22:30;36.13;;;16.98;;
77226;SDS011;66234;47.642;19.144;2024-03-08T12:25:34;47.22;;;21.90;;
77226;SDS011;66234;47.642;19.144;2024-03-08T12:28:42;44.40;;;18.48;;
77226;SDS011;66234;47.642;19.144;2024-03-08T12:31:51;41.50;;;20.03;;
77226;SDS011;66234;47.642;19.144;2024-03-08T12:34:56;49.70;;;22.67;;
77226;SDS011;66234;47.642;19.144;2024-03-08T12:37:59;48.70;;;21.60;;
77226;SDS011;66234;47.642;19.144;2024-03-08T12:41:02;46.47;;;23.25;;
77226;SDS011;66234;47.642;19.144;2024-03-08T12:44:05;44.42;;;22.33;;
77226;SDS011;66234;47.642;19.144;2024-03-08T12:47:09;44.47;;;19.30;;
77226;SDS011;66234;47.642;19.144;2024-03-08T12:50:12;38.23;;;19.27;;
77226;SDS011;66234;47.642;19.144;2024-03-08T12:53:16;40.55;;;20.90;;
77226;SDS011;66234;47.642;19.144;2024-03-08T12:56:36;41.38;;;20.30;;
77226;SDS011;66234;47.642;19.144;2024-03-08T12:59:39;45.08;;;21.48;;
77226;SDS011;66234;47.642;19.144;2024-03-08T13:02:46;48.10;;;22.27;;
77226;SDS011;66234;47.642;19.144;2024-03-08T13:05:50;37.73;;;18.77;;
77226;SDS011;66234;47.642;19.144;2024-03-08T13:08:54;39.33;;;18.88;;
77226;SDS011;66234;47.642;19.144;2024-03-08T13:11:57;34.28;;;16.92;;
77226;SDS011;66234;47.642;19.144;2024-03-08T13:15:03;35.92;;;18.67;;
77226;SDS011;66234;47.642;19.144;2024-03-08T13:18:07;36.07;;;18.17;;
77226;SDS011;66234;47.642;19.144;2024-03-08T13:21:11;43.90;;;19.40;;
77226;SDS011;66234;47.642;19.144;2024-03-08T13:24:15;47.45;;;22.38;;
77226;SDS011;66234;47.642;19.144;2024-03-08T13:27:18;44.55;;;19.90;;
77226;SDS011;66234;47.642;19.144;2024-03-08T13:30:22;42.38;;;21.40;;
77226;SDS011;66234;47.642;19.144;2024-03-08T13:33:30;41.20;;;20.33;;
77226;SDS011;66234;47.642;19.144;2024-03-08T13:36:33;41.83;;;19.00;;
77226;SDS011;66234;47.642;19.144;2024-03-08T13:39:46;43.53;;;21.42;;
77226;SDS011;66234;47.642;19.144;2024-03-08T13:42:52;39.95;;;20.17;;
77226;SDS011;66234;47.642;19.144;2024-03-08T13:45:55;39.20;;;21.58;;
77226;SDS011;66234;47.642;19.144;2024-03-08T13:48:58;47.63;;;24.97;;
77226;SDS011;66234;47.642;19.144;2024-03-08T13:52:12;47.63;;;22.33;;
77226;SDS011;66234;47.642;19.144;2024-03-08T13:55:18;43.70;;;20.42;;
77226;SDS011;66234;47.642;19.144;2024-03-08T13:58:21;43.95;;;21.98;;
77226;SDS011;66234;47.642;19.144;2024-03-08T14:01:24;52.00;;;25.00;;
77226;SDS011;66234;47.642;19.144;2024-03-08T14:04:28;48.27;;;25.40;;
77226;SDS011;66234;47.642;19.144;2024-03-08T14:07:31;49.03;;;22.70;;
77226;SDS011;66234;47.642;19.144;2024-03-08T14:10:35;44.70;;;21.35;;
77226;SDS011;66234;47.642;19.144;2024-03-08T14:13:42;43.75;;;22.33;;
77226;SDS011;66234;47.642;19.144;2024-03-08T14:16:47;40.03;;;20.98;;
77226;SDS011;66234;47.642;19.144;2024-03-08T14:19:50;50.63;;;22.33;;
77226;SDS011;66234;47.642;19.144;2024-03-08T14:22:56;42.20;;;20.53;;
77226;SDS011;66234;47.642;19.144;2024-03-08T14:25:59;45.42;;;20.77;;
77226;SDS011;66234;47.642;19.144;2024-03-08T14:29:02;42.70;;;20.25;;
77226;SDS011;66234;47.642;19.144;2024-03-08T14:32:05;54.15;;;22.48;;
77226;SDS011;66234;47.642;19.144;2024-03-08T14:35:08;52.17;;;23.87;;
77226;SDS011;66234;47.642;19.144;2024-03-08T14:38:13;69.07;;;31.50;;
77226;SDS011;66234;47.642;19.144;2024-03-08T14:41:16;54.85;;;25.08;;
77226;SDS011;66234;47.642;19.144;2024-03-08T14:44:22;47.70;;;22.17;;
77226;SDS011;66234;47.642;19.144;2024-03-08T14:47:28;48.60;;;23.70;;
77226;SDS011;66234;47.642;19.144;2024-03-08T14:50:31;50.10;;;24.13;;
77226;SDS011;66234;47.642;19.144;2024-03-08T14:53:35;48.23;;;22.93;;
77226;SDS011;66234;47.642;19.144;2024-03-08T14:56:38;54.45;;;26.35;;
77226;SDS011;66234;47.642;19.144;2024-03-08T14:59:45;50.50;;;25.23;;
77226;SDS011;66234;47.642;19.144;2024-03-08T15:02:47;80.05;;;36.25;;
77226;SDS011;66234;47.642;19.144;2024-03-08T15:05:50;49.87;;;25.73;;
77226;SDS011;66234;47.642;19.144;2024-03-08T15:08:53;49.57;;;23.83;;
77226;SDS011;66234;47.642;19.144;2024-03-08T15:11:57;58.10;;;26.23;;
77226;SDS011;66234;47.642;19.144;2024-03-08T15:15:00;48.38;;;24.40;;
77226;SDS011;66234;47.642;19.144;2024-03-08T15:18:05;50.38;;;25.70;;
77226;SDS011;66234;47.642;19.144;2024-03-08T15:21:09;50.30;;;23.50;;
77226;SDS011;66234;47.642;19.144;2024-03-08T15:24:12;44.77;;;22.90;;
77226;SDS011;66234;47.642;19.144;2024-03-08T15:27:23;47.35;;;24.08;;
77226;SDS011;66234;47.642;19.144;2024-03-08T15:30:26;48.30;;;22.45;;
77226;SDS011;66234;47.642;19.144;2024-03-08T15:33:30;43.95;;;22.05;;
77226;SDS011;66234;47.642;19.144;2024-03-08T15:36:34;45.57;;;21.77;;
77226;SDS011;66234;47.642;19.144;2024-03-08T15:39:37;44.17;;;21.63;;
77226;SDS011;66234;47.642;19.144;2024-03-08T15:42:42;51.47;;;25.30;;
77226;SDS011;66234;47.642;19.144;2024-03-08T15:45:44;50.13;;;22.85;;
77226;SDS011;66234;47.642;19.144;2024-03-08T15:48:48;54.10;;;25.15;;
77226;SDS011;66234;47.642;19.144;2024-03-08T15:51:51;55.10;;;24.73;;
77226;SDS011;66234;47.642;19.144;2024-03-08T15:54:54;52.00;;;23.10;;
77226;SDS011;66234;47.642;19.144;2024-03-08T15:57:57;64.68;;;27.15;;
77226;SDS011;66234;47.642;19.144;2024-03-08T16:01:02;68.20;;;33.45;;
77226;SDS011;66234;47.642;19.144;2024-03-08T16:04:13;46.65;;;23.35;;
77226;SDS011;66234;47.642;19.144;2024-03-08T16:07:15;46.77;;;24.17;;
77226;SDS011;66234;47.642;19.144;2024-03-08T16:10:18;43.90;;;21.70;;
77226;SDS011;66234;47.642;19.144;2024-03-08T16:13:21;47.17;;;24.45;;
77226;SDS011;66234;47.642;19.144;2024-03-08T16:16:24;49.47;;;23.67;;
77226;SDS011;66234;47.642;19.144;2024-03-08T16:19:28;51.33;;;25.70;;
77226;SDS011;66234;47.642;19.144;2024-03-08T16:22:33;48.70;;;21.97;;
77226;SDS011;66234;47.642;19.144;2024-03-08T16:25:36;50.97;;;26.43;;
77226;SDS011;66234;47.642;19.144;2024-03-08T16:28:39;51.20;;;26.40;;
77226;SDS011;66234;47.642;19.144;2024-03-08T16:31:45;49.17;;;23.58;;
77226;SDS011;66234;47.642;19.144;2024-03-08T16:34:49;47.28;;;20.85;;
77226;SDS011;66234;47.642;19.144;2024-03-08T16:37:53;43.07;;;20.73;;
77226;SDS011;66234;47.642;19.144;2024-03-08T16:40:56;44.87;;;22.43;;
77226;SDS011;66234;47.642;19.144;2024-03-08T16:44:03;48.83;;;24.70;;
77226;SDS011;66234;47.642;19.144;2024-03-08T16:47:07;48.67;;;25.50;;
77226;SDS011;66234;47.642;19.144;2024-03-08T16:50:10;50.80;;;24.80;;
77226;SDS011;66234;47.642;19.144;2024-03-08T16:53:16;54.33;;;23.83;;
77226;SDS011;66234;47.642;19.144;2024-03-08T16:56:20;44.23;;;22.10;;
77226;SDS011;66234;47.642;19.144;2024-03-08T16:59:25;50.28;;;23.60;;
77226;SDS011;66234;47.642;19.144;2024-03-08T17:02:28;44.90;;;22.60;;
77226;SDS011;66234;47.642;19.144;2024-03-08T17:05:32;44.83;;;21.80;;
77226;SDS011;66234;47.642;19.144;2024-03-08T17:08:35;49.50;;;21.60;;
77226;SDS011;66234;47.642;19.144;2024-03-08T17:11:40;39.70;;;19.97;;
77226;SDS011;66234;47.642;19.144;2024-03-08T17:14:43;44.75;;;22.08;;
77226;SDS011;66234;47.642;19.144;2024-03-08T17:17:46;48.10;;;20.88;;
77226;SDS011;66234;47.642;19.144;2024-03-08T17:20:49;45.45;;;20.92;;
77226;SDS011;66234;47.642;19.144;2024-03-08T17:23:52;47.07;;;22.83;;
77226;SDS011;66234;47.642;19.144;2024-03-08T17:26:55;45.93;;;22.20;;
77226;SDS011;66234;47.642;19.144;2024-03-08T17:29:58;41.53;;;20.20;;
77226;SDS011;66234;47.642;19.144;2024-03-08T17:33:04;59.03;;;27.63;;
77226;SDS011;66234;47.642;19.144;2024-03-08T17:36:19;48.97;;;25.30;;
77226;SDS011;66234;47.642;19.144;2024-03-08T17:39:23;50.17;;;24.20;;
77226;SDS011;66234;47.642;19.144;2024-03-08T17:42:31;44.40;;;22.47;;
77226;SDS011;66234;47.642;19.144;2024-03-08T17:45:34;56.28;;;25.58;;
77226;SDS011;66234;47.642;19.144;2024-03-08T17:48:37;45.92;;;23.50;;